createdAt,value
2017-11-20T00:00:49.610Z,97.60
2017-11-20T00:03:15.856Z,97.70
2017-11-20T00:05:42.187Z,97.50
2017-11-20T00:08:08.443Z,97.60
2017-11-20T00:10:34.704Z,97.50
2017-11-20T00:13:00.945Z,97.60
2017-11-20T00:15:27.632Z,97.90
2017-11-20T00:17:54.362Z,98.10
2017-11-20T00:20:21.372Z,98.40
2017-11-20T00:22:47.646Z,98.40
2017-11-20T00:25:13.894Z,98.50
2017-11-20T00:27:40.185Z,98.50
2017-11-20T00:30:07.167Z,98.80
2017-11-20T00:32:34.474Z,99.00
2017-11-20T00:35:00.731Z,99.00
2017-11-20T00:37:26.984Z,99.10
2017-11-20T00:39:53.260Z,99.20
2017-11-20T00:42:20.247Z,99.40
2017-11-20T00:44:46.803Z,99.40
2017-11-20T00:47:13.146Z,99.40
2017-11-20T00:49:39.393Z,99.40
2017-11-20T00:52:06.408Z,99.40
2017-11-20T00:54:32.668Z,99.30
2017-11-20T00:56:59.705Z,99.30
2017-11-20T00:59:26.214Z,99.30
2017-11-20T01:01:52.477Z,99.70
2017-11-20T01:04:19.497Z,99.60
2017-11-20T01:06:46.631Z,99.60
2017-11-20T01:09:13.095Z,99.70
2017-11-20T01:11:40.273Z,99.90
2017-11-20T01:14:06.541Z,99.90
2017-11-20T01:16:32.823Z,99.90
2017-11-20T01:18:59.046Z,99.90
2017-11-20T01:21:25.325Z,99.90
2017-11-20T01:23:51.588Z,99.90
2017-11-20T01:26:20.817Z,99.90
2017-11-20T01:28:47.087Z,99.90
2017-11-20T01:31:13.347Z,99.90
2017-11-20T01:33:39.921Z,99.90
2017-11-20T01:36:06.159Z,99.90
2017-11-20T01:38:32.415Z,99.90
2017-11-20T01:40:58.685Z,99.80
2017-11-20T01:43:25.250Z,99.80
2017-11-20T01:45:51.782Z,99.90
2017-11-20T01:48:18.048Z,99.90
2017-11-20T01:50:45.073Z,99.90
2017-11-20T01:53:11.355Z,99.90
2017-11-20T01:55:37.647Z,99.90
2017-11-20T01:58:04.689Z,99.70
2017-11-20T02:00:30.964Z,99.60
2017-11-20T02:02:59.123Z,99.60
2017-11-20T02:05:25.417Z,99.60
2017-11-20T02:07:52.745Z,99.70
2017-11-20T02:10:19.039Z,99.60
2017-11-20T02:12:45.301Z,99.70
2017-11-20T02:15:11.572Z,99.60
2017-11-20T02:17:38.586Z,99.50
2017-11-20T02:20:04.858Z,99.50
2017-11-20T02:22:31.157Z,99.40
2017-11-20T02:24:58.160Z,99.30
2017-11-20T02:27:24.761Z,99.30
2017-11-20T02:29:52.193Z,99.30
2017-11-20T02:32:20.911Z,99.00
2017-11-20T02:34:47.410Z,98.90
2017-11-20T02:37:14.463Z,99.00
2017-11-20T02:39:41.501Z,99.00
2017-11-20T02:42:08.520Z,98.80
2017-11-20T02:44:34.840Z,98.80
2017-11-20T02:47:01.137Z,98.60
2017-11-20T02:49:27.436Z,98.60
2017-11-20T02:51:54.491Z,98.40
2017-11-20T02:54:20.761Z,98.40
2017-11-20T02:56:47.065Z,98.20
2017-11-20T02:59:13.344Z,98.30
2017-11-20T03:01:39.655Z,98.30
2017-11-20T03:04:05.905Z,98.40
2017-11-20T03:06:32.912Z,98.80
2017-11-20T03:08:59.190Z,98.40
2017-11-20T03:11:26.249Z,98.10
2017-11-20T03:13:52.575Z,98.10
2017-11-20T03:16:18.810Z,98.00
2017-11-20T03:18:45.065Z,97.70
2017-11-20T03:21:11.355Z,97.50
2017-11-20T03:23:38.360Z,97.20
2017-11-20T03:26:04.942Z,97.20
2017-11-20T03:28:31.224Z,96.90
2017-11-20T03:30:57.515Z,96.70
2017-11-20T03:33:23.719Z,96.70
2017-11-20T03:35:49.990Z,96.80
2017-11-20T03:38:16.270Z,96.70
2017-11-20T03:40:42.553Z,96.60
2017-11-20T03:43:08.842Z,96.50
2017-11-20T03:45:35.100Z,96.50
2017-11-20T03:48:01.372Z,96.50
2017-11-20T03:50:28.394Z,96.40
2017-11-20T03:52:54.635Z,96.30
2017-11-20T03:55:21.661Z,96.20
2017-11-20T03:57:47.903Z,96.30
2017-11-20T04:00:14.148Z,96.10
2017-11-20T04:02:40.413Z,96.10
2017-11-20T04:05:06.654Z,95.90
2017-11-20T04:07:32.909Z,95.90
2017-11-20T04:09:59.174Z,96.00
2017-11-20T04:12:25.441Z,96.10
2017-11-20T04:14:51.699Z,95.80
2017-11-20T04:17:17.951Z,96.10
2017-11-20T04:19:44.970Z,96.10
2017-11-20T04:22:11.690Z,96.10
2017-11-20T04:24:37.886Z,95.90
2017-11-20T04:27:04.161Z,95.80
2017-11-20T04:29:30.437Z,95.60
2017-11-20T04:31:56.722Z,95.50
2017-11-20T04:34:22.977Z,95.50
2017-11-20T04:36:49.270Z,95.40
2017-11-20T04:39:15.541Z,95.50
2017-11-20T04:41:41.794Z,95.50
2017-11-20T04:44:08.086Z,95.40
2017-11-20T04:46:34.357Z,95.50
2017-11-20T04:49:00.620Z,95.70
2017-11-20T04:51:27.667Z,95.70
2017-11-20T04:53:54.673Z,95.70
2017-11-20T04:56:20.950Z,95.70
2017-11-20T04:58:47.950Z,95.30
2017-11-20T05:01:14.246Z,95.30
2017-11-20T05:03:40.520Z,95.50
2017-11-20T05:06:06.751Z,95.00
2017-11-20T05:08:33.022Z,94.80
2017-11-20T05:10:59.288Z,94.90
2017-11-20T05:13:25.512Z,94.90
2017-11-20T05:15:51.852Z,94.90
2017-11-20T05:18:18.112Z,94.70
2017-11-20T05:20:45.118Z,94.90
2017-11-20T05:23:11.390Z,94.90
2017-11-20T05:25:37.658Z,94.10
2017-11-20T05:28:04.252Z,94.20
2017-11-20T05:30:32.850Z,94.40
2017-11-20T05:33:00.036Z,94.30
2017-11-20T05:35:26.298Z,94.30
2017-11-20T05:37:53.306Z,94.40
2017-11-20T05:40:19.587Z,94.40
2017-11-20T05:42:45.906Z,94.60
2017-11-20T05:45:12.459Z,95.30
2017-11-20T05:47:38.734Z,97.50
2017-11-20T05:50:04.970Z,97.30
2017-11-20T05:52:31.246Z,96.20
2017-11-20T05:54:57.510Z,95.80
2017-11-20T05:57:24.433Z,95.20
2017-11-20T05:59:50.699Z,93.60
2017-11-20T06:02:16.948Z,89.50
2017-11-20T06:04:43.232Z,89.50
2017-11-20T06:07:09.481Z,90.20
2017-11-20T06:09:35.720Z,90.00
2017-11-20T06:12:02.770Z,91.00
2017-11-20T06:14:29.745Z,91.10
2017-11-20T06:16:56.351Z,91.00
2017-11-20T06:19:23.359Z,92.00
2017-11-20T06:21:49.613Z,92.00
2017-11-20T06:24:16.707Z,91.20
2017-11-20T06:26:52.280Z,91.20
2017-11-20T06:29:19.318Z,91.10
2017-11-20T06:31:45.575Z,91.40
2017-11-20T06:34:13.604Z,91.70
2017-11-20T06:36:39.993Z,92.00
2017-11-20T06:39:06.253Z,92.30
2017-11-20T06:41:32.530Z,92.60
2017-11-20T06:43:59.513Z,93.70
2017-11-20T06:46:26.061Z,93.60
2017-11-20T06:48:52.322Z,94.20
2017-11-20T06:51:18.576Z,94.10
2017-11-20T06:53:45.582Z,93.80
2017-11-20T06:56:11.830Z,93.80
2017-11-20T06:58:38.081Z,93.70
2017-11-20T07:01:04.339Z,93.50
2017-11-20T07:03:30.744Z,93.30
2017-11-20T07:05:57.015Z,92.20
2017-11-20T07:08:23.283Z,92.40
2017-11-20T07:10:50.311Z,92.30
2017-11-20T07:13:16.532Z,92.30
2017-11-20T07:15:42.784Z,92.30
2017-11-20T07:18:09.829Z,92.20
2017-11-20T07:20:36.976Z,92.20
2017-11-20T07:23:04.016Z,92.70
2017-11-20T07:25:38.141Z,92.80
2017-11-20T07:28:05.210Z,92.60
2017-11-20T07:30:43.747Z,92.60
2017-11-20T07:33:10.454Z,92.70
2017-11-20T07:35:48.852Z,92.50
2017-11-20T07:38:17.449Z,92.10
2017-11-20T07:40:55.965Z,91.90
2017-11-20T07:43:22.277Z,92.00
2017-11-20T07:45:48.529Z,92.10
2017-11-20T07:48:14.784Z,92.20
2017-11-20T07:50:41.018Z,92.30
2017-11-20T07:53:07.291Z,92.10
2017-11-20T07:55:33.835Z,92.10
2017-11-20T07:58:00.090Z,92.30
2017-11-20T08:00:26.352Z,92.40
2017-11-20T08:02:52.898Z,92.40
2017-11-20T08:05:19.443Z,92.30
2017-11-20T08:07:45.720Z,91.90
2017-11-20T08:10:11.965Z,91.90
2017-11-20T08:12:38.234Z,91.80
2017-11-20T08:15:04.498Z,91.70
2017-11-20T08:17:30.786Z,91.80
2017-11-20T08:19:57.037Z,91.80
2017-11-20T08:22:23.327Z,91.80
2017-11-20T08:24:50.306Z,91.90
2017-11-20T08:27:16.583Z,91.90
2017-11-20T08:29:42.861Z,92.10
2017-11-20T08:32:09.112Z,92.10
2017-11-20T08:34:35.397Z,91.60
2017-11-20T08:37:03.043Z,91.50
2017-11-20T08:39:30.403Z,91.40
2017-11-20T08:41:56.657Z,91.30
2017-11-20T08:44:23.188Z,91.50
2017-11-20T08:46:49.472Z,91.50
2017-11-20T08:49:16.212Z,91.30
2017-11-20T08:51:43.711Z,91.40
2017-11-20T08:54:10.017Z,91.60
2017-11-20T08:56:36.289Z,91.40
2017-11-20T08:59:02.601Z,91.00
2017-11-20T09:01:28.858Z,90.50
2017-11-20T09:03:55.557Z,90.70
2017-11-20T09:06:23.985Z,90.70
2017-11-20T09:08:50.456Z,90.70
2017-11-20T09:11:16.806Z,90.70
2017-11-20T09:13:43.793Z,90.40
2017-11-20T09:16:10.405Z,89.60
2017-11-20T09:18:36.699Z,89.80
2017-11-20T09:21:03.598Z,89.40
2017-11-20T09:23:29.879Z,90.00
2017-11-20T09:25:56.181Z,89.80
2017-11-20T09:28:24.184Z,89.50
2017-11-20T09:30:50.461Z,89.50
2017-11-20T09:33:17.514Z,88.50
2017-11-20T09:35:45.229Z,88.40
2017-11-20T09:38:11.545Z,88.40
2017-11-20T09:40:37.821Z,88.60
2017-11-20T09:43:05.167Z,87.50
2017-11-20T09:45:31.481Z,87.50
2017-11-20T09:47:57.795Z,86.50
2017-11-20T09:50:26.289Z,87.20
2017-11-20T09:52:52.871Z,87.20
2017-11-20T09:55:19.164Z,87.60
2017-11-20T09:57:45.462Z,86.90
2017-11-20T10:00:11.733Z,86.60
2017-11-20T10:02:39.093Z,86.20
2017-11-20T10:05:06.430Z,85.70
2017-11-20T10:07:32.891Z,85.70
2017-11-20T10:09:59.214Z,86.30
2017-11-20T10:12:25.544Z,86.20
2017-11-20T10:14:52.264Z,85.50
2017-11-20T10:17:18.727Z,84.20
2017-11-20T10:19:45.050Z,85.50
2017-11-20T10:22:11.368Z,83.70
2017-11-20T10:24:38.441Z,84.20
2017-11-20T10:27:05.910Z,84.20
2017-11-20T10:29:32.227Z,84.40
2017-11-20T10:31:58.824Z,84.00
2017-11-20T10:34:27.058Z,84.00
2017-11-20T10:36:54.856Z,84.00
2017-11-20T10:39:21.903Z,82.80
2017-11-20T10:41:49.455Z,82.80
2017-11-20T10:44:16.123Z,82.60
2017-11-20T10:46:43.889Z,83.20
2017-11-20T10:49:11.389Z,83.20
2017-11-20T10:51:40.276Z,82.60
2017-11-20T10:54:07.452Z,83.20
2017-11-20T10:56:34.776Z,83.20
2017-11-20T10:59:01.050Z,83.10
2017-11-20T11:01:27.355Z,82.60
2017-11-20T11:03:53.698Z,83.00
2017-11-20T11:06:20.018Z,83.10
2017-11-20T11:08:47.100Z,82.90
2017-11-20T11:11:13.411Z,82.90
2017-11-20T11:13:40.440Z,82.60
2017-11-20T11:16:07.455Z,81.80
2017-11-20T11:18:33.735Z,81.80
2017-11-20T11:21:00.050Z,81.60
2017-11-20T11:23:27.084Z,81.30
2017-11-20T11:25:53.361Z,81.30
2017-11-20T11:28:19.695Z,80.70
2017-11-20T11:30:50.142Z,80.30
2017-11-20T11:33:16.412Z,80.30
2017-11-20T11:35:42.704Z,80.90
2017-11-20T11:38:08.984Z,81.60
2017-11-20T11:40:35.246Z,81.60
2017-11-20T11:43:01.796Z,81.50
2017-11-20T11:45:28.112Z,81.20
2017-11-20T11:47:54.434Z,80.40
2017-11-20T11:50:20.720Z,79.80
2017-11-20T11:52:47.042Z,79.30
2017-11-20T11:55:13.337Z,80.00
2017-11-20T11:57:39.616Z,79.80
2017-11-20T12:00:05.912Z,80.40
2017-11-20T12:02:32.947Z,79.00
2017-11-20T12:04:59.243Z,78.80
2017-11-20T12:07:25.497Z,79.10
2017-11-20T12:09:51.794Z,79.90
2017-11-20T12:12:18.068Z,79.90
2017-11-20T12:14:45.122Z,80.70
2017-11-20T12:17:12.185Z,80.90
2017-11-20T12:19:38.474Z,80.90
2017-11-20T12:22:12.102Z,81.30
2017-11-20T12:24:38.386Z,82.00
2017-11-20T12:27:04.667Z,82.00
2017-11-20T12:29:30.976Z,82.40
2017-11-20T12:31:58.016Z,82.80
2017-11-20T12:34:25.325Z,84.20
2017-11-20T12:36:51.623Z,83.50
2017-11-20T12:39:18.030Z,83.50
2017-11-20T12:41:45.097Z,83.80
2017-11-20T12:44:11.412Z,83.80
2017-11-20T12:46:38.480Z,84.80
2017-11-20T12:49:04.850Z,84.80
2017-11-20T12:51:31.147Z,88.80
2017-11-20T12:53:57.539Z,90.30
2017-11-20T12:56:23.862Z,89.80
2017-11-20T12:58:50.176Z,88.10
2017-11-20T13:01:16.469Z,87.00
2017-11-20T13:03:42.767Z,85.70
2017-11-20T13:06:09.070Z,82.40
2017-11-20T13:08:35.388Z,81.50
2017-11-20T13:11:01.676Z,82.50
2017-11-20T13:13:28.014Z,81.00
2017-11-20T13:15:54.287Z,78.50
2017-11-20T13:18:20.558Z,77.90
2017-11-20T13:20:46.880Z,76.10
2017-11-20T13:23:13.178Z,76.50
2017-11-20T13:25:40.206Z,76.90
2017-11-20T13:28:06.517Z,76.90
2017-11-20T13:30:32.807Z,76.70
2017-11-20T13:32:59.399Z,76.70
2017-11-20T13:35:25.717Z,76.20
2017-11-20T13:37:51.995Z,77.50
2017-11-20T13:40:18.331Z,79.10
2017-11-20T13:42:44.611Z,80.30
2017-11-20T13:45:10.944Z,81.20
2017-11-20T13:47:37.246Z,82.00
2017-11-20T13:50:03.586Z,83.10
2017-11-20T13:52:29.969Z,84.70
2017-11-20T13:54:56.286Z,86.90
2017-11-20T13:57:23.335Z,90.00
2017-11-20T13:59:49.632Z,90.00
2017-11-20T14:02:15.915Z,90.60
2017-11-20T14:04:42.239Z,91.40
2017-11-20T14:07:08.539Z,92.40
2017-11-20T14:09:34.854Z,93.00
2017-11-20T14:12:01.213Z,93.60
2017-11-20T14:14:27.515Z,93.90
2017-11-20T14:16:54.591Z,94.60
2017-11-20T14:19:20.930Z,94.40
2017-11-20T14:21:47.210Z,94.50
2017-11-20T14:24:13.621Z,94.60
2017-11-20T14:26:40.055Z,94.70
2017-11-20T14:29:06.433Z,95.00
2017-11-20T14:31:32.902Z,95.10
2017-11-20T14:33:59.352Z,95.20
2017-11-20T14:36:25.759Z,95.40
2017-11-20T14:38:52.200Z,95.50
2017-11-20T14:41:18.511Z,95.60
2017-11-20T14:43:44.864Z,95.80
2017-11-20T14:46:13.885Z,95.90
2017-11-20T14:48:43.396Z,96.00
2017-11-20T14:51:35.619Z,96.20
2017-11-20T14:54:02.110Z,96.20
2017-11-20T14:56:28.432Z,96.30
2017-11-20T14:58:54.731Z,96.40
2017-11-20T15:01:22.097Z,96.40
2017-11-20T15:03:49.042Z,96.40
2017-11-20T15:06:15.349Z,96.50
2017-11-20T15:08:42.400Z,96.60
2017-11-20T15:11:09.478Z,96.70
2017-11-20T15:13:36.120Z,96.70
2017-11-20T15:16:02.405Z,96.80
2017-11-20T15:18:29.455Z,97.20
2017-11-20T15:20:56.526Z,97.20
2017-11-20T15:23:22.834Z,97.20
2017-11-20T15:25:49.215Z,97.40
2017-11-20T15:28:15.501Z,97.50
2017-11-20T15:30:41.796Z,97.60
2017-11-20T15:33:08.117Z,97.80
2017-11-20T15:35:34.408Z,97.90
2017-11-20T15:38:00.756Z,98.00
2017-11-20T15:40:27.029Z,98.10
2017-11-20T15:42:54.059Z,98.20
2017-11-20T15:45:21.091Z,98.50
2017-11-20T15:47:47.356Z,98.20
2017-11-20T15:50:13.725Z,98.20
2017-11-20T15:52:41.660Z,98.30
2017-11-20T15:55:07.998Z,98.30
2017-11-20T15:57:34.360Z,98.50
2017-11-20T16:00:00.649Z,98.50
2017-11-20T16:02:27.230Z,98.60
2017-11-20T16:04:54.990Z,98.70
2017-11-20T16:07:21.280Z,98.60
2017-11-20T16:09:47.635Z,98.70
2017-11-20T16:12:13.979Z,98.80
2017-11-20T16:14:40.301Z,98.80
2017-11-20T16:17:07.000Z,98.90
2017-11-20T16:19:33.301Z,98.90
2017-11-20T16:22:00.384Z,99.10
2017-11-20T16:24:26.697Z,99.10
2017-11-20T16:26:52.993Z,99.10
2017-11-20T16:29:20.563Z,99.10
2017-11-20T16:31:47.595Z,99.20
2017-11-20T16:34:13.929Z,99.20
2017-11-20T16:36:40.245Z,99.40
2017-11-20T16:39:06.513Z,99.20
2017-11-20T16:41:32.818Z,99.20
2017-11-20T16:43:59.897Z,99.20
2017-11-20T16:46:26.239Z,99.20
2017-11-20T16:48:52.539Z,99.30
2017-11-20T16:51:18.874Z,99.30
2017-11-20T16:53:45.154Z,99.40
2017-11-20T16:56:11.443Z,99.40
2017-11-20T16:58:47.822Z,99.40
2017-11-20T17:01:26.992Z,99.40
2017-11-20T17:03:54.251Z,99.60
2017-11-20T17:06:22.114Z,99.70
2017-11-20T17:08:50.303Z,99.90
2017-11-20T17:11:17.385Z,99.90
2017-11-20T17:13:44.600Z,99.80
2017-11-20T17:16:11.632Z,99.90
2017-11-20T17:18:37.913Z,99.90
2017-11-20T17:21:04.176Z,99.90
2017-11-20T17:23:30.461Z,99.90
2017-11-20T17:25:57.678Z,99.90
2017-11-20T17:28:24.686Z,99.90
2017-11-20T17:30:50.952Z,99.90
2017-11-20T17:33:17.980Z,97.90
2017-11-20T17:35:45.035Z,97.70
2017-11-20T17:38:11.319Z,97.50
2017-11-20T17:40:37.721Z,97.50
2017-11-20T17:43:03.977Z,98.00
2017-11-20T17:45:30.338Z,98.00
2017-11-20T17:47:57.399Z,98.30
2017-11-20T17:50:24.791Z,98.30
2017-11-20T17:52:51.132Z,98.30
2017-11-20T17:55:17.428Z,98.40
2017-11-20T17:57:45.084Z,98.30
2017-11-20T18:00:11.386Z,98.40
2017-11-20T18:02:38.162Z,98.60
2017-11-20T18:05:04.515Z,98.70
2017-11-20T18:07:30.804Z,98.90
2017-11-20T18:10:01.724Z,99.10
2017-11-20T18:12:30.521Z,99.20
2017-11-20T18:14:57.200Z,99.20
2017-11-20T18:17:23.571Z,99.30
2017-11-20T18:19:49.904Z,99.40
2017-11-20T18:22:16.291Z,99.40
2017-11-20T18:24:43.781Z,99.30
2017-11-20T18:27:10.185Z,99.40
2017-11-20T18:29:36.555Z,99.60
2017-11-20T18:32:03.361Z,99.80
2017-11-20T18:34:29.685Z,99.90
2017-11-20T18:36:57.372Z,99.90
2017-11-20T18:39:24.962Z,99.90
2017-11-20T18:41:52.221Z,99.90
2017-11-20T18:44:18.666Z,99.80
2017-11-20T18:46:45.126Z,99.80
2017-11-20T18:49:11.493Z,99.80
2017-11-20T18:51:37.859Z,99.70
2017-11-20T18:54:04.265Z,99.70
2017-11-20T18:56:30.652Z,99.70
2017-11-20T18:58:56.955Z,99.70
2017-11-20T19:01:35.511Z,99.60
2017-11-20T19:04:14.113Z,99.60
2017-11-20T19:06:52.551Z,99.70
2017-11-20T19:09:18.931Z,99.70
2017-11-20T19:11:45.331Z,99.90
2017-11-20T19:14:11.621Z,99.80
2017-11-20T19:16:37.915Z,99.80
2017-11-20T19:19:04.244Z,99.80
2017-11-20T19:21:31.394Z,99.80
2017-11-20T19:23:57.857Z,99.80
2017-11-20T19:26:24.275Z,99.80
2017-11-20T19:28:50.617Z,99.90
2017-11-20T19:31:17.044Z,99.80
2017-11-20T19:33:43.385Z,99.60
2017-11-20T19:36:10.510Z,99.90
2017-11-20T19:38:36.945Z,99.60
2017-11-20T19:41:03.331Z,99.20
2017-11-20T19:43:29.778Z,98.70
2017-11-20T19:45:56.135Z,98.40
2017-11-20T19:48:22.597Z,98.30
2017-11-20T19:50:49.005Z,98.30
2017-11-20T19:53:15.390Z,98.30
2017-11-20T19:55:48.660Z,98.30
2017-11-20T19:58:15.056Z,98.10
2017-11-20T20:00:41.516Z,98.00
2017-11-20T20:03:07.930Z,98.00
2017-11-20T20:05:35.061Z,98.10
2017-11-20T20:10:35.581Z,97.60
2017-11-20T20:13:01.948Z,97.40
2017-11-20T20:15:41.205Z,97.40
2017-11-20T20:18:07.611Z,97.40
2017-11-20T20:20:33.939Z,97.30
2017-11-20T20:23:00.269Z,96.90
2017-11-20T20:25:27.837Z,96.60
2017-11-20T20:27:54.359Z,96.30
2017-11-20T20:30:20.974Z,96.20
2017-11-20T20:32:47.365Z,96.30
2017-11-20T20:35:13.765Z,96.30
2017-11-20T20:37:40.890Z,96.60
2017-11-20T20:40:09.097Z,96.60
2017-11-20T20:42:36.731Z,96.80
2017-11-20T20:45:04.240Z,96.90
2017-11-20T20:47:30.777Z,96.90
2017-11-20T20:49:57.189Z,96.80
2017-11-20T20:52:25.445Z,96.00
2017-11-20T20:54:52.104Z,96.00
2017-11-20T20:57:18.469Z,96.10
2017-11-20T20:59:45.165Z,96.00
2017-11-20T21:02:11.853Z,96.00
2017-11-20T21:04:38.370Z,96.10
2017-11-20T21:07:04.747Z,96.00
2017-11-20T21:09:41.525Z,96.30
2017-11-20T21:12:14.785Z,96.00
2017-11-20T21:14:41.183Z,96.00
2017-11-20T21:17:08.190Z,96.30
2017-11-20T21:19:35.272Z,96.50
2017-11-20T21:22:01.616Z,96.50
2017-11-20T21:24:28.292Z,96.80
2017-11-20T21:26:54.665Z,97.00
2017-11-20T21:29:20.953Z,97.10
2017-11-20T21:31:47.285Z,97.20
2017-11-20T21:34:14.036Z,97.50
2017-11-20T21:36:40.392Z,97.70
2017-11-20T21:39:06.708Z,97.80
2017-11-20T21:41:32.971Z,97.90
2017-11-20T21:43:59.413Z,98.00
2017-11-20T21:46:25.692Z,98.00
2017-11-20T21:48:51.983Z,98.20
2017-11-20T21:51:18.306Z,98.20
2017-11-20T21:53:44.641Z,98.40
2017-11-20T21:56:11.892Z,98.50
2017-11-20T21:58:39.451Z,98.60
2017-11-20T22:01:06.007Z,98.50
2017-11-20T22:03:33.012Z,98.70
2017-11-20T22:05:59.435Z,98.70
2017-11-20T22:08:25.785Z,98.70
2017-11-20T22:10:52.049Z,98.70
2017-11-20T22:13:27.192Z,98.80
2017-11-20T22:15:53.485Z,98.80
2017-11-20T22:18:20.428Z,98.90
2017-11-20T22:20:46.861Z,98.90
2017-11-20T22:23:13.634Z,99.00
2017-11-20T22:25:40.413Z,99.10
2017-11-20T22:28:06.696Z,99.10
2017-11-20T22:30:33.752Z,99.10
2017-11-20T22:33:01.020Z,99.10
2017-11-20T22:35:28.136Z,99.00
2017-11-20T22:37:54.573Z,99.20
2017-11-20T22:40:21.950Z,99.30
2017-11-20T22:42:48.322Z,99.30
2017-11-20T22:45:14.607Z,99.40
2017-11-20T22:47:40.902Z,99.50
2017-11-20T22:50:07.937Z,99.80
2017-11-20T22:52:34.930Z,99.90
2017-11-20T22:55:01.185Z,99.90
2017-11-20T22:57:27.471Z,99.90
2017-11-20T22:59:53.770Z,99.90
2017-11-20T23:02:20.828Z,99.90
2017-11-20T23:04:47.101Z,99.90
2017-11-20T23:07:13.430Z,99.90
2017-11-20T23:09:39.690Z,99.90
2017-11-20T23:12:06.452Z,99.90
2017-11-20T23:14:32.738Z,99.90
2017-11-20T23:16:59.001Z,99.90
2017-11-20T23:19:25.296Z,99.90
2017-11-20T23:21:51.581Z,99.90
2017-11-20T23:24:17.853Z,99.90
2017-11-20T23:26:44.173Z,99.90
2017-11-20T23:29:10.437Z,99.90
2017-11-20T23:31:37.432Z,99.90
2017-11-20T23:34:03.724Z,99.90
2017-11-20T23:36:29.970Z,99.90
2017-11-20T23:38:57.108Z,99.90
2017-11-20T23:41:23.356Z,99.90
2017-11-20T23:43:49.595Z,99.90
2017-11-20T23:46:15.856Z,99.90
2017-11-20T23:48:42.134Z,99.90
2017-11-20T23:51:08.429Z,99.90
2017-11-20T23:53:35.379Z,99.90
2017-11-20T23:56:01.636Z,99.90
2017-11-20T23:58:27.888Z,99.90
